Time;durP1;ratioP1;P1;durP2;ratioP2;P2;SDS_P1;SDS_P2;PMS_P1;PMS_P2;Temp;Humidity;BMP_temperature;BMP_pressure;BME280_temperature;BME280_humidity;BME280_pressure;Samples;Min_cycle;Max_cycle;Signal;HPM_P1;HPM_P2
2023/08/22 07:04:33;;;;;;;6.35;4.03;;;;;;;;;;12921836;22;1489274;-81
2023/08/22 07:09:34;;;;;;;6.93;4.25;;;;;;;;;;12910174;23;20515;-82
2023/08/22 07:14:36;;;;;;;7.03;4.60;;;;;;;;;;12906880;23;20008;-80
2023/08/22 07:19:37;;;;;;;6.50;4.70;;;;;;;;;;12901222;23;20026;-79
2023/08/22 07:24:38;;;;;;;6.70;4.90;;;;;;;;;;12905298;23;20004;-77
2023/08/22 07:29:39;;;;;;;7.68;5.47;;;;;;;;;;12909692;23;20344;-80
2023/08/22 07:34:40;;;;;;;7.20;4.95;;;;;;;;;;12938317;23;20004;-79
2023/08/22 07:39:42;;;;;;;9.07;5.63;;;;;;;;;;12945122;23;20000;-79
2023/08/22 07:44:43;;;;;;;10.95;6.43;;;;;;;;;;12959472;22;20015;-78
2023/08/22 07:49:44;;;;;;;12.98;6.00;;;;;;;;;;12906429;23;20008;-79
2023/08/22 07:54:45;;;;;;;10.40;4.90;;;;;;;;;;12905507;23;20091;-79
2023/08/22 07:59:46;;;;;;;8.05;5.63;;;;;;;;;;12903435;23;20032;-79
2023/08/22 08:04:48;;;;;;;8.73;6.20;;;;;;;;;;12901453;23;20078;-78
2023/08/22 08:09:49;;;;;;;7.63;4.63;;;;;;;;;;12901340;23;20012;-78
2023/08/22 08:14:50;;;;;;;7.20;4.55;;;;;;;;;;12906140;23;20012;-79
2023/08/22 08:19:51;;;;;;;8.32;5.00;;;;;;;;;;12914280;23;20000;-79
2023/08/22 08:24:52;;;;;;;6.65;4.03;;;;;;;;;;12916562;23;20036;-78
2023/08/22 08:29:55;;;;;;;5.38;4.20;;;;;;;;;;12907157;23;20015;-81
2023/08/22 08:34:56;;;;;;;6.63;4.03;;;;;;;;;;12906390;23;20392;-79
2023/08/22 08:39:57;;;;;;;6.45;3.42;;;;;;;;;;12902571;23;20084;-79
2023/08/22 08:44:58;;;;;;;5.78;3.70;;;;;;;;;;12902430;23;20436;-78
2023/08/22 08:50:14;;;;;;;7.15;5.63;;;;;;;;;;12903323;23;20004;-78
2023/08/22 08:55:16;;;;;;;4.15;3.25;;;;;;;;;;12901045;23;20091;-78
2023/08/22 09:00:17;;;;;;;4.50;3.30;;;;;;;;;;12902117;23;20000;-79
2023/08/22 09:05:19;;;;;;;6.95;4.45;;;;;;;;;;12931066;23;20102;-79
2023/08/22 09:10:34;;;;;;;5.93;3.40;;;;;;;;;;12904110;23;20064;-79
2023/08/22 09:15:35;;;;;;;5.53;2.45;;;;;;;;;;12904875;23;20433;-79
2023/08/22 09:20:36;;;;;;;8.85;3.58;;;;;;;;;;12907714;23;20062;-80
2023/08/22 09:25:39;;;;;;;8.15;4.05;;;;;;;;;;12903894;23;20054;-78
2023/08/22 09:30:47;;;;;;;6.22;4.07;;;;;;;;;;12905130;23;20116;-80
2023/08/22 09:35:48;;;;;;;5.15;3.30;;;;;;;;;;12911832;23;20028;-80
2023/08/22 09:40:50;;;;;;;5.25;3.35;;;;;;;;;;12910684;23;20474;-84
2023/08/22 09:45:52;;;;;;;6.70;3.72;;;;;;;;;;12911472;23;20004;-84
2023/08/22 09:50:59;;;;;;;4.47;3.40;;;;;;;;;;12911101;23;20019;-83
2023/08/22 09:56:01;;;;;;;5.75;3.58;;;;;;;;;;12910427;23;20337;-83
2023/08/22 10:01:02;;;;;;;7.15;4.45;;;;;;;;;;12908699;23;20499;-80
2023/08/22 10:06:04;;;;;;;4.13;2.80;;;;;;;;;;12907269;23;20016;-81
2023/08/22 10:11:07;;;;;;;6.32;3.35;;;;;;;;;;12906504;23;20004;-80
2023/08/22 10:16:14;;;;;;;7.25;3.83;;;;;;;;;;12933449;23;20007;-81
2023/08/22 10:21:16;;;;;;;5.93;3.38;;;;;;;;;;12908795;23;20000;-81
2023/08/22 10:26:18;;;;;;;4.95;3.03;;;;;;;;;;12909982;23;20000;-81
2023/08/22 10:31:19;;;;;;;5.47;3.38;;;;;;;;;;12907149;23;20015;-80
2023/08/22 10:36:20;;;;;;;7.55;2.83;;;;;;;;;;12910574;23;20425;-80
2023/08/22 10:41:22;;;;;;;8.07;3.70;;;;;;;;;;12909545;23;20393;-80
2023/08/22 10:46:43;;;;;;;4.03;2.88;;;;;;;;;;12909585;23;20032;-80
2023/08/22 10:51:44;;;;;;;4.30;2.63;;;;;;;;;;12907795;23;20058;-80
2023/08/22 10:56:46;;;;;;;6.85;3.72;;;;;;;;;;12939244;23;20004;-79
2023/08/22 11:01:48;;;;;;;5.53;2.88;;;;;;;;;;12919053;23;20459;-80
2023/08/22 11:06:49;;;;;;;7.38;2.92;;;;;;;;;;12930150;23;20020;-81
2023/08/22 11:11:51;;;;;;;5.15;3.00;;;;;;;;;;12910436;23;20064;-80
2023/08/22 11:16:52;;;;;;;6.18;2.90;;;;;;;;;;12912160;23;20004;-81
2023/08/22 11:21:53;;;;;;;6.15;3.38;;;;;;;;;;12937671;23;20052;-80
2023/08/22 11:27:19;;;;;;;11.38;3.47;;;;;;;;;;12911599;23;20027;-79
2023/08/22 11:32:22;;;;;;;5.65;2.90;;;;;;;;;;12923802;23;20015;-80
2023/08/22 11:37:23;;;;;;;4.65;2.65;;;;;;;;;;12907410;23;20039;-79
2023/08/22 11:42:25;;;;;;;4.30;2.67;;;;;;;;;;12940878;23;20360;-80
2023/08/22 11:47:42;;;;;;;4.15;2.45;;;;;;;;;;12916943;23;20004;-80
2023/08/22 11:52:44;;;;;;;6.22;4.55;;;;;;;;;;12911457;23;20004;-79
2023/08/22 11:57:45;;;;;;;6.53;2.45;;;;;;;;;;12910995;23;20008;-80
2023/08/22 12:02:50;;;;;;;3.58;2.70;;;;;;;;;;12911553;23;20340;-80
2023/08/22 12:07:51;;;;;;;4.45;2.10;;;;;;;;;;12911128;23;20019;-80
2023/08/22 12:12:53;;;;;;;3.45;2.60;;;;;;;;;;12931723;22;20088;-81
2023/08/22 12:17:54;;;;;;;4.10;1.73;;;;;;;;;;12933363;23;20004;-80
2023/08/22 12:22:55;;;;;;;4.35;2.50;;;;;;;;;;12938094;23;20001;-81
2023/08/22 12:27:56;;;;;;;4.43;1.88;;;;;;;;;;12937259;23;20008;-84
2023/08/22 12:32:57;;;;;;;3.90;2.55;;;;;;;;;;12943231;23;20000;-84
2023/08/22 12:38:07;;;;;;;5.32;2.10;;;;;;;;;;12943484;23;20035;-81
2023/08/22 12:43:08;;;;;;;6.38;2.00;;;;;;;;;;12943226;23;20015;-83
2023/08/22 12:48:09;;;;;;;6.88;2.70;;;;;;;;;;12942591;23;20011;-84
2023/08/22 12:53:10;;;;;;;5.18;2.63;;;;;;;;;;12943783;23;20027;-82
2023/08/22 12:58:11;;;;;;;6.32;2.67;;;;;;;;;;12947240;22;20456;-82
2023/08/22 13:03:12;;;;;;;5.47;3.65;;;;;;;;;;12940265;23;20004;-82
2023/08/22 13:08:15;;;;;;;4.28;2.35;;;;;;;;;;12945323;23;20385;-84
2023/08/22 13:13:16;;;;;;;6.63;2.97;;;;;;;;;;12937773;23;20436;-83
2023/08/22 13:18:17;;;;;;;7.85;3.78;;;;;;;;;;12933935;23;20100;-82
2023/08/22 13:23:18;;;;;;;5.25;2.63;;;;;;;;;;12933475;23;20015;-82
2023/08/22 13:28:19;;;;;;;5.10;2.40;;;;;;;;;;12930692;23;20015;-82
2023/08/22 13:33:20;;;;;;;6.65;3.92;;;;;;;;;;12934423;23;19996;-83
2023/08/22 13:38:21;;;;;;;6.55;2.90;;;;;;;;;;12934152;23;20290;-83
2023/08/22 13:43:22;;;;;;;7.70;3.10;;;;;;;;;;12933533;23;20012;-83
2023/08/22 13:48:24;;;;;;;6.20;3.20;;;;;;;;;;12932425;23;20008;-83
2023/08/22 13:53:37;;;;;;;7.68;2.60;;;;;;;;;;12933366;23;20005;-85
2023/08/22 13:58:38;;;;;;;4.75;2.50;;;;;;;;;;12935947;23;20329;-83
2023/08/22 14:03:39;;;;;;;5.32;2.90;;;;;;;;;;12939779;23;20042;-82
2023/08/22 14:08:40;;;;;;;6.38;2.80;;;;;;;;;;12943860;23;20004;-82
2023/08/22 14:13:42;;;;;;;6.30;2.90;;;;;;;;;;12938567;23;20038;-82
2023/08/22 14:18:43;;;;;;;5.88;2.90;;;;;;;;;;12939279;22;20028;-81
2023/08/22 14:23:44;;;;;;;5.78;2.88;;;;;;;;;;12936892;23;20008;-83
2023/08/22 14:28:48;;;;;;;6.65;2.40;;;;;;;;;;12939047;23;20004;-83
2023/08/22 14:33:49;;;;;;;3.92;2.25;;;;;;;;;;12936556;23;20007;-83
2023/08/22 14:38:50;;;;;;;4.72;2.72;;;;;;;;;;12936324;23;20011;-83
2023/08/22 14:43:52;;;;;;;5.47;2.78;;;;;;;;;;12939785;23;20046;-82
2023/08/22 14:48:53;;;;;;;6.38;2.80;;;;;;;;;;12941199;22;20011;-83
2023/08/22 14:53:55;;;;;;;5.82;2.90;;;;;;;;;;12939436;23;20083;-83
2023/08/22 14:58:56;;;;;;;5.05;2.72;;;;;;;;;;12942567;23;20436;-83
2023/08/22 15:03:58;;;;;;;5.97;2.65;;;;;;;;;;12955872;22;20008;-85
2023/08/22 15:08:59;;;;;;;4.13;2.50;;;;;;;;;;12980269;22;20020;-82
2023/08/22 15:14:00;;;;;;;4.93;3.08;;;;;;;;;;12954735;23;20156;-83
2023/08/22 15:19:07;;;;;;;6.10;3.10;;;;;;;;;;12935728;23;20387;-82
2023/08/22 15:24:08;;;;;;;3.47;2.47;;;;;;;;;;12935254;23;20011;-83
2023/08/22 15:29:10;;;;;;;6.43;4.68;;;;;;;;;;12940023;23;20003;-84
2023/08/22 15:34:13;;;;;;;3.63;2.60;;;;;;;;;;12942209;23;20035;-83
2023/08/22 15:39:14;;;;;;;4.93;2.90;;;;;;;;;;12942212;22;20424;-83
2023/08/22 15:44:15;;;;;;;3.75;2.55;;;;;;;;;;12944211;23;20004;-83
2023/08/22 15:49:16;;;;;;;4.53;2.75;;;;;;;;;;12958688;23;20000;-83
2023/08/22 15:54:17;;;;;;;4.13;2.20;;;;;;;;;;12945357;23;20059;-82
2023/08/22 15:59:18;;;;;;;3.80;2.63;;;;;;;;;;12954134;23;20005;-83
2023/08/22 16:04:19;;;;;;;4.40;2.55;;;;;;;;;;12946289;23;20012;-83
2023/08/22 16:09:21;;;;;;;5.57;3.10;;;;;;;;;;12939072;23;20007;-83
2023/08/22 16:14:22;;;;;;;3.30;2.35;;;;;;;;;;12934051;23;20016;-82
2023/08/22 16:19:25;;;;;;;6.03;3.80;;;;;;;;;;12929191;23;20099;-85
2023/08/22 16:35:41;;;;;;;4.25;2.45;;;;;;;;;;12932557;22;20012;-83
2023/08/22 16:41:10;;;;;;;6.53;4.03;;;;;;;;;;12926672;22;20007;-84
2023/08/22 16:46:51;;;;;;;6.10;5.28;;;;;;;;;;12803840;23;20009;-84
2023/08/22 16:58:03;;;;;;;5.22;4.30;;;;;;;;;;12692489;23;20002;-84
2023/08/22 17:03:10;;;;;;;9.20;4.68;;;;;;;;;;12670456;23;20017;-86
2023/08/22 17:08:33;;;;;;;7.13;4.47;;;;;;;;;;12774653;23;20013;-84
2023/08/22 17:13:51;;;;;;;5.55;3.85;;;;;;;;;;12796694;23;20009;-86
2023/08/22 17:18:59;;;;;;;6.72;3.97;;;;;;;;;;12882585;23;20020;-86
2023/08/22 17:24:07;;;;;;;5.30;3.45;;;;;;;;;;12949775;23;19992;-84
